DLH25N LPPD-EDDF
Flight info
| Callsign | DLH25N |
|---|---|
| Flight time | N/A |
| Altitude | 35000 |
| Route | BEKUN DCT LENSI DCT ERPES/N0445F350 DCT PETEK DCT LOTEE DCT AZFIC UN741 MOKOR UN873 OBATO UM163 TSU UN858 OQQAL DCT RANUX DCT VALEK DCT LUTAX UM163 DIK T856 NIVNU T847 IMCOM IMCOM1B |
| Aircraft | A321/M-SDE2E3FGIJ1LORWXYZ/HB1 |
Departure
| Time | 2026-05-04 08:46 |
|---|---|
| Airport | João Paulo II Airport (LPPD) |
Arrival
| Time | N/A |
|---|---|
| Airport | Frankfurt Main Airport (EDDF) |
| Time | Latitude | Longitude | Altitude | Speed | Heading |
|---|---|---|---|---|---|
| 2026-05-04 08:06 | 37.74883 | -25.71113 | 272 ft | 0 kts | 22° |
| 2026-05-04 08:40 | 37.74828 | -25.71192 | 275 ft | 0 kts | 111° |
| 2026-05-04 08:42 | 37.74826 | -25.71185 | 275 ft | 2 kts | 111° |
| 2026-05-04 08:42 | 37.74820 | -25.71167 | 273 ft | 2 kts | 111° |
| 2026-05-04 08:43 | 37.74812 | -25.71140 | 273 ft | 4 kts | 111° |
| 2026-05-04 08:43 | 37.74799 | -25.71098 | 273 ft | 6 kts | 111° |
| 2026-05-04 08:43 | 37.74781 | -25.71047 | 271 ft | 7 kts | 122° |
| 2026-05-04 08:43 | 37.74734 | -25.71024 | 271 ft | 8 kts | 176° |
| 2026-05-04 08:44 | 37.74680 | -25.71030 | 271 ft | 8 kts | 202° |
| 2026-05-04 08:44 | 37.74641 | -25.71076 | 272 ft | 7 kts | 210° |
| 2026-05-04 08:46 | 37.73572 | -25.67756 | 1462 ft | 160 kts | 105° |
| 2026-05-04 08:46 | 37.73181 | -25.66430 | 1971 ft | 167 kts | 105° |
| 2026-05-04 08:46 | 37.72757 | -25.64994 | 2260 ft | 181 kts | 108° |
| 2026-05-04 08:46 | 37.72305 | -25.63481 | 2551 ft | 188 kts | 107° |
| 2026-05-04 08:47 | 37.71689 | -25.61955 | 2852 ft | 209 kts | 127° |
| 2026-05-04 08:47 | 37.70383 | -25.60856 | 2955 ft | 247 kts | 160° |
| 2026-05-04 08:47 | 37.68637 | -25.60813 | 3554 ft | 259 kts | 194° |
| 2026-05-04 08:47 | 37.67069 | -25.61940 | 4190 ft | 266 kts | 226° |
| 2026-05-04 08:48 | 37.66170 | -25.63954 | 4827 ft | 266 kts | 260° |
| 2026-05-04 08:48 | 37.66251 | -25.66236 | 5460 ft | 261 kts | 294° |
| 2026-05-04 08:48 | 37.67266 | -25.68053 | 6072 ft | 254 kts | 327° |
| 2026-05-04 08:48 | 37.68294 | -25.68731 | 6396 ft | 252 kts | 349° |
| 2026-05-04 08:49 | 37.70033 | -25.68955 | 6927 ft | 254 kts | 0° |
| 2026-05-04 08:50 | 37.80683 | -25.71968 | 10491 ft | 266 kts | 15° |
| 2026-05-04 08:50 | 37.82328 | -25.70902 | 10782 ft | 274 kts | 46° |
| 2026-05-04 08:51 | 37.83335 | -25.68816 | 11044 ft | 287 kts | 72° |
| 2026-05-04 08:51 | 37.83708 | -25.66295 | 11421 ft | 297 kts | 81° |
| 2026-05-04 08:51 | 37.84025 | -25.63674 | 11778 ft | 307 kts | 80° |
| 2026-05-04 08:51 | 37.84374 | -25.60944 | 11979 ft | 322 kts | 80° |
| 2026-05-04 08:52 | 37.84753 | -25.58105 | 12292 ft | 332 kts | 79° |
| 2026-05-04 08:52 | 37.85158 | -25.55197 | 12680 ft | 339 kts | 79° |
| 2026-05-04 08:52 | 37.85589 | -25.52229 | 13081 ft | 346 kts | 79° |
| 2026-05-04 08:52 | 37.85974 | -25.49201 | 13528 ft | 351 kts | 82° |
| 2026-05-04 08:53 | 37.86222 | -25.46108 | 13996 ft | 356 kts | 85° |
| 2026-05-04 08:54 | 37.87159 | -25.23366 | 16602 ft | 391 kts | 86° |
| 2026-05-04 08:55 | 37.87325 | -25.19916 | 16994 ft | 395 kts | 86° |
| 2026-05-04 08:55 | 37.87493 | -25.16432 | 17381 ft | 398 kts | 86° |
| 2026-05-04 08:55 | 37.87660 | -25.12932 | 17799 ft | 400 kts | 86° |
| 2026-05-04 08:55 | 37.87824 | -25.09407 | 18184 ft | 403 kts | 86° |
| 2026-05-04 08:57 | 37.88943 | -24.84119 | 20524 ft | 421 kts | 87° |
| 2026-05-04 09:01 | 37.91412 | -24.30421 | 24711 ft | 452 kts | 74° |
| 2026-05-04 09:01 | 37.92393 | -24.26639 | 24956 ft | 453 kts | 70° |
| 2026-05-04 09:01 | 37.93430 | -24.22857 | 25191 ft | 456 kts | 70° |
| 2026-05-04 09:01 | 37.94479 | -24.19057 | 25437 ft | 457 kts | 70° |
| 2026-05-04 09:02 | 37.95530 | -24.15247 | 25673 ft | 460 kts | 70° |
| 2026-05-04 09:02 | 37.96587 | -24.11410 | 25926 ft | 462 kts | 70° |
| 2026-05-04 09:02 | 37.97643 | -24.07559 | 26137 ft | 464 kts | 70° |
| 2026-05-04 09:02 | 37.98700 | -24.03683 | 26390 ft | 466 kts | 70° |
| 2026-05-04 09:03 | 37.99756 | -23.99788 | 26602 ft | 468 kts | 70° |
| 2026-05-04 09:03 | 38.00815 | -23.95880 | 26842 ft | 470 kts | 70° |
| 2026-05-04 09:03 | 38.01876 | -23.91949 | 27038 ft | 472 kts | 70° |
| 2026-05-04 09:03 | 38.02938 | -23.88010 | 27268 ft | 473 kts | 70° |
| 2026-05-04 09:04 | 38.04008 | -23.84052 | 27446 ft | 475 kts | 70° |
| 2026-05-04 09:04 | 38.05069 | -23.80140 | 27649 ft | 476 kts | 70° |
| 2026-05-04 09:04 | 38.06148 | -23.76161 | 27822 ft | 478 kts | 70° |
| 2026-05-04 09:04 | 38.07229 | -23.72170 | 28044 ft | 478 kts | 70° |
| 2026-05-04 09:05 | 38.08303 | -23.68175 | 28307 ft | 478 kts | 70° |
| 2026-05-04 09:05 | 38.09369 | -23.64191 | 28566 ft | 477 kts | 70° |
| 2026-05-04 09:05 | 38.10433 | -23.60199 | 28834 ft | 477 kts | 71° |
| 2026-05-04 09:05 | 38.11494 | -23.56217 | 29081 ft | 477 kts | 70° |
| 2026-05-04 09:06 | 38.12556 | -23.52232 | 29342 ft | 476 kts | 71° |
| 2026-05-04 09:07 | 38.19931 | -23.24415 | 31011 ft | 473 kts | 71° |
| 2026-05-04 09:08 | 38.20960 | -23.20441 | 31223 ft | 473 kts | 71° |
| 2026-05-04 09:08 | 38.21982 | -23.16472 | 31425 ft | 472 kts | 71° |
| 2026-05-04 09:08 | 38.23003 | -23.12505 | 31632 ft | 472 kts | 71° |
| 2026-05-04 09:08 | 38.24027 | -23.08540 | 31842 ft | 471 kts | 71° |
| 2026-05-04 09:09 | 38.25053 | -23.04584 | 32064 ft | 471 kts | 71° |
| 2026-05-04 09:09 | 38.26079 | -23.00633 | 32287 ft | 470 kts | 71° |
| 2026-05-04 09:09 | 38.27102 | -22.96686 | 32493 ft | 469 kts | 71° |
| 2026-05-04 09:09 | 38.28122 | -22.92741 | 32701 ft | 469 kts | 71° |
| 2026-05-04 09:10 | 38.29135 | -22.88801 | 32894 ft | 469 kts | 71° |
| 2026-05-04 09:10 | 38.30146 | -22.84859 | 33090 ft | 468 kts | 72° |
| 2026-05-04 09:10 | 38.31153 | -22.80918 | 33278 ft | 468 kts | 72° |
| 2026-05-04 09:10 | 38.32155 | -22.76978 | 33477 ft | 467 kts | 72° |
| 2026-05-04 09:11 | 38.33155 | -22.73040 | 33685 ft | 466 kts | 72° |
| 2026-05-04 09:11 | 38.34153 | -22.69114 | 33890 ft | 465 kts | 72° |
| 2026-05-04 09:11 | 38.35137 | -22.65243 | 34064 ft | 465 kts | 72° |
| 2026-05-04 09:11 | 38.36134 | -22.61325 | 34259 ft | 465 kts | 72° |
| 2026-05-04 09:12 | 38.37130 | -22.57409 | 34406 ft | 465 kts | 72° |
| 2026-05-04 09:12 | 38.38121 | -22.53490 | 34565 ft | 464 kts | 72° |
| 2026-05-04 09:14 | 38.45038 | -22.26040 | 35285 ft | 466 kts | 72° |
| 2026-05-04 09:14 | 38.47009 | -22.18160 | 35285 ft | 466 kts | 72° |
| 2026-05-04 09:15 | 38.48971 | -22.10263 | 35285 ft | 466 kts | 72° |
| 2026-05-04 09:15 | 38.50928 | -22.02371 | 35285 ft | 466 kts | 72° |
| 2026-05-04 09:17 | 38.59712 | -21.66721 | 35305 ft | 468 kts | 73° |
| 2026-05-04 09:18 | 38.61635 | -21.58837 | 35304 ft | 468 kts | 73° |
| 2026-05-04 09:18 | 38.63558 | -21.50894 | 35305 ft | 468 kts | 73° |
| 2026-05-04 09:19 | 38.65480 | -21.42949 | 35305 ft | 467 kts | 73° |
| 2026-05-04 09:19 | 38.67404 | -21.35006 | 35303 ft | 467 kts | 73° |
| 2026-05-04 09:20 | 38.69325 | -21.27056 | 35300 ft | 467 kts | 73° |
| 2026-05-04 09:20 | 38.71228 | -21.19103 | 35300 ft | 467 kts | 73° |
| 2026-05-04 09:21 | 38.73124 | -21.11139 | 35302 ft | 467 kts | 73° |
| 2026-05-04 09:21 | 38.75021 | -21.03177 | 35301 ft | 467 kts | 73° |
| 2026-05-04 09:22 | 38.76921 | -20.95213 | 35297 ft | 467 kts | 73° |
| 2026-05-04 09:22 | 38.78810 | -20.87242 | 35297 ft | 467 kts | 73° |
| 2026-05-04 09:23 | 38.80689 | -20.79267 | 35301 ft | 467 kts | 73° |
| 2026-05-04 09:23 | 38.82553 | -20.71336 | 35295 ft | 468 kts | 73° |
| 2026-05-04 09:25 | 38.89998 | -20.39337 | 35287 ft | 468 kts | 73° |
| 2026-05-04 09:26 | 38.91857 | -20.31314 | 35284 ft | 469 kts | 73° |
| 2026-05-04 09:26 | 38.93699 | -20.23279 | 35284 ft | 469 kts | 73° |
| 2026-05-04 09:27 | 38.95546 | -20.15236 | 35282 ft | 470 kts | 73° |
| 2026-05-04 09:27 | 38.97392 | -20.07179 | 35287 ft | 470 kts | 73° |
| 2026-05-04 09:28 | 38.99225 | -19.99111 | 35281 ft | 471 kts | 73° |
| 2026-05-04 09:28 | 39.01060 | -19.91033 | 35278 ft | 471 kts | 73° |
| 2026-05-04 09:29 | 39.02883 | -19.82938 | 35279 ft | 471 kts | 73° |
| 2026-05-04 09:29 | 39.04698 | -19.74837 | 35282 ft | 472 kts | 73° |
| 2026-05-04 09:30 | 39.06511 | -19.66721 | 35275 ft | 472 kts | 72° |
| 2026-05-04 09:30 | 39.08304 | -19.58642 | 35272 ft | 473 kts | 73° |
| 2026-05-04 09:31 | 39.10106 | -19.50497 | 35277 ft | 473 kts | 73° |
| 2026-05-04 09:31 | 39.11914 | -19.42346 | 35282 ft | 474 kts | 72° |
| 2026-05-04 09:32 | 39.13724 | -19.34182 | 35273 ft | 474 kts | 72° |
| 2026-05-04 09:34 | 39.20877 | -19.01387 | 35272 ft | 476 kts | 72° |
| 2026-05-04 09:34 | 39.22666 | -18.93154 | 35269 ft | 477 kts | 72° |
| 2026-05-04 09:35 | 39.24441 | -18.84909 | 35270 ft | 477 kts | 72° |
| 2026-05-04 09:35 | 39.26204 | -18.76645 | 35267 ft | 478 kts | 72° |
| 2026-05-04 09:37 | 39.33237 | -18.43604 | 35280 ft | 478 kts | 72° |
| 2026-05-04 09:38 | 39.34986 | -18.35308 | 35275 ft | 479 kts | 72° |
| 2026-05-04 09:38 | 39.36729 | -18.27009 | 35270 ft | 479 kts | 72° |
| 2026-05-04 09:39 | 39.38465 | -18.18694 | 35264 ft | 479 kts | 72° |
| 2026-05-04 09:39 | 39.40192 | -18.10369 | 35266 ft | 479 kts | 72° |
| 2026-05-04 09:40 | 39.41632 | -18.03443 | 35281 ft | 480 kts | 72° |
| 2026-05-04 09:40 | 39.43361 | -17.95108 | 35269 ft | 480 kts | 72° |
| 2026-05-04 09:42 | 39.50198 | -17.61649 | 35260 ft | 482 kts | 72° |
| 2026-05-04 09:43 | 39.51907 | -17.53262 | 35260 ft | 482 kts | 72° |
| 2026-05-04 09:43 | 39.53607 | -17.44856 | 35264 ft | 482 kts | 72° |
| 2026-05-04 09:44 | 39.55295 | -17.36444 | 35280 ft | 483 kts | 72° |
| 2026-05-04 09:46 | 39.61996 | -17.02671 | 35269 ft | 484 kts | 72° |
| 2026-05-04 09:46 | 39.63669 | -16.94203 | 35266 ft | 485 kts | 72° |
| 2026-05-04 09:47 | 39.65336 | -16.85723 | 35251 ft | 485 kts | 72° |
| 2026-05-04 09:49 | 39.72031 | -16.51812 | 35270 ft | 481 kts | 63° |
| 2026-05-04 09:49 | 39.73584 | -16.48032 | 35266 ft | 470 kts | 48° |
| 2026-05-04 09:51 | 39.86667 | -16.29501 | 35261 ft | 464 kts | 41° |
| 2026-05-04 09:51 | 39.91052 | -16.23329 | 35258 ft | 464 kts | 41° |
| 2026-05-04 09:52 | 39.95435 | -16.17142 | 35258 ft | 464 kts | 41° |
| 2026-05-04 09:52 | 39.99817 | -16.10953 | 35273 ft | 465 kts | 41° |
| 2026-05-04 09:53 | 40.04197 | -16.04757 | 35256 ft | 464 kts | 41° |
| 2026-05-04 09:53 | 40.08572 | -15.98549 | 35270 ft | 464 kts | 41° |
| 2026-05-04 09:54 | 40.12916 | -15.92383 | 35259 ft | 464 kts | 41° |
| 2026-05-04 09:54 | 40.17282 | -15.86163 | 35253 ft | 464 kts | 41° |
| 2026-05-04 09:55 | 40.21678 | -15.79904 | 35245 ft | 464 kts | 41° |
| 2026-05-04 09:55 | 40.26010 | -15.73712 | 35243 ft | 464 kts | 41° |
| 2026-05-04 09:56 | 40.30369 | -15.67472 | 35259 ft | 464 kts | 41° |
| 2026-05-04 09:56 | 40.34719 | -15.61215 | 35239 ft | 464 kts | 41° |
| 2026-05-04 09:57 | 40.39059 | -15.54970 | 35237 ft | 464 kts | 41° |
| 2026-05-04 09:57 | 40.43400 | -15.48703 | 35235 ft | 464 kts | 41° |
| 2026-05-04 09:58 | 40.47716 | -15.42389 | 35237 ft | 465 kts | 41° |
| 2026-05-04 09:58 | 40.52019 | -15.36045 | 35238 ft | 465 kts | 41° |
| 2026-05-04 10:00 | 40.69230 | -15.10585 | 35235 ft | 465 kts | 41° |
| 2026-05-04 10:04 | 40.99159 | -14.65813 | 35221 ft | 465 kts | 42° |
| 2026-05-04 10:04 | 41.03428 | -14.59365 | 35222 ft | 466 kts | 42° |
| 2026-05-04 10:05 | 41.07694 | -14.52892 | 35219 ft | 466 kts | 42° |
| 2026-05-04 10:05 | 41.11947 | -14.46433 | 35209 ft | 465 kts | 42° |
| 2026-05-04 10:06 | 41.16207 | -14.39971 | 35212 ft | 466 kts | 42° |
| 2026-05-04 10:06 | 41.20473 | -14.33492 | 35215 ft | 466 kts | 42° |
| 2026-05-04 10:08 | 41.35369 | -14.10708 | 35227 ft | 467 kts | 42° |
| 2026-05-04 10:08 | 41.39615 | -14.04176 | 35219 ft | 467 kts | 42° |
| 2026-05-04 10:09 | 41.43866 | -13.97634 | 35208 ft | 467 kts | 42° |
| 2026-05-04 10:09 | 41.48086 | -13.91125 | 35216 ft | 467 kts | 42° |
| 2026-05-04 10:10 | 41.52330 | -13.84563 | 35248 ft | 467 kts | 42° |
| 2026-05-04 10:10 | 41.56569 | -13.77993 | 35212 ft | 467 kts | 42° |
| 2026-05-04 10:11 | 41.60810 | -13.71414 | 35210 ft | 467 kts | 43° |
| 2026-05-04 10:11 | 41.65041 | -13.64819 | 35207 ft | 467 kts | 43° |
| 2026-05-04 10:12 | 41.69270 | -13.58209 | 35205 ft | 468 kts | 43° |
| 2026-05-04 10:12 | 41.73500 | -13.51592 | 35203 ft | 468 kts | 43° |